sensor_id;sensor_type;location;lat;lon;timestamp;P1;durP1;ratioP1;P2;durP2;ratioP2
20336;SDS011;10326;53.660;10.200;2023-11-19T00:01:59;6.40;;;5.80;;
20336;SDS011;10326;53.660;10.200;2023-11-19T00:04:26;6.45;;;5.85;;
20336;SDS011;10326;53.660;10.200;2023-11-19T00:06:54;6.07;;;5.57;;
20336;SDS011;10326;53.660;10.200;2023-11-19T00:09:27;6.20;;;5.60;;
20336;SDS011;10326;53.660;10.200;2023-11-19T00:11:55;5.85;;;5.03;;
20336;SDS011;10326;53.660;10.200;2023-11-19T00:14:23;5.70;;;5.20;;
20336;SDS011;10326;53.660;10.200;2023-11-19T00:16:50;5.68;;;5.18;;
20336;SDS011;10326;53.660;10.200;2023-11-19T00:19:19;5.55;;;5.05;;
20336;SDS011;10326;53.660;10.200;2023-11-19T00:21:46;5.53;;;5.03;;
20336;SDS011;10326;53.660;10.200;2023-11-19T00:24:15;4.68;;;4.28;;
20336;SDS011;10326;53.660;10.200;2023-11-19T00:26:42;5.10;;;4.70;;
20336;SDS011;10326;53.660;10.200;2023-11-19T00:29:10;4.03;;;3.72;;
20336;SDS011;10326;53.660;10.200;2023-11-19T00:31:39;4.72;;;4.32;;
20336;SDS011;10326;53.660;10.200;2023-11-19T00:34:06;4.85;;;4.45;;
20336;SDS011;10326;53.660;10.200;2023-11-19T00:36:33;3.70;;;3.40;;
20336;SDS011;10326;53.660;10.200;2023-11-19T00:39:00;3.55;;;3.25;;
20336;SDS011;10326;53.660;10.200;2023-11-19T00:41:29;3.65;;;3.35;;
20336;SDS011;10326;53.660;10.200;2023-11-19T00:43:57;3.97;;;3.58;;
20336;SDS011;10326;53.660;10.200;2023-11-19T00:46:24;3.80;;;3.50;;
20336;SDS011;10326;53.660;10.200;2023-11-19T00:48:53;3.75;;;3.45;;
20336;SDS011;10326;53.660;10.200;2023-11-19T00:51:20;3.25;;;3.05;;
20336;SDS011;10326;53.660;10.200;2023-11-19T00:53:47;3.15;;;2.95;;
20336;SDS011;10326;53.660;10.200;2023-11-19T00:56:14;3.33;;;3.03;;
20336;SDS011;10326;53.660;10.200;2023-11-19T00:58:43;2.75;;;2.55;;
20336;SDS011;10326;53.660;10.200;2023-11-19T01:01:11;2.75;;;2.55;;
20336;SDS011;10326;53.660;10.200;2023-11-19T01:03:38;2.53;;;2.33;;
20336;SDS011;10326;53.660;10.200;2023-11-19T01:06:06;3.30;;;2.35;;
20336;SDS011;10326;53.660;10.200;2023-11-19T01:08:34;3.90;;;2.10;;
20336;SDS011;10326;53.660;10.200;2023-11-19T01:11:02;2.28;;;2.17;;
20336;SDS011;10326;53.660;10.200;2023-11-19T01:13:29;2.13;;;2.03;;
20336;SDS011;10326;53.660;10.200;2023-11-19T01:15:58;2.35;;;2.20;;
20336;SDS011;10326;53.660;10.200;2023-11-19T01:18:27;2.15;;;1.80;;
20336;SDS011;10326;53.660;10.200;2023-11-19T01:20:54;2.45;;;1.88;;
20336;SDS011;10326;53.660;10.200;2023-11-19T01:23:21;2.05;;;1.90;;
20336;SDS011;10326;53.660;10.200;2023-11-19T01:25:48;2.00;;;1.90;;
20336;SDS011;10326;53.660;10.200;2023-11-19T01:28:15;2.00;;;1.90;;
20336;SDS011;10326;53.660;10.200;2023-11-19T01:30:42;1.70;;;1.60;;
20336;SDS011;10326;53.660;10.200;2023-11-19T01:33:11;1.98;;;1.77;;
20336;SDS011;10326;53.660;10.200;2023-11-19T01:35:38;1.80;;;1.70;;
20336;SDS011;10326;53.660;10.200;2023-11-19T01:38:06;1.73;;;1.63;;
20336;SDS011;10326;53.660;10.200;2023-11-19T01:40:35;1.77;;;1.67;;
20336;SDS011;10326;53.660;10.200;2023-11-19T01:43:02;1.60;;;1.50;;
20336;SDS011;10326;53.660;10.200;2023-11-19T01:45:30;1.42;;;1.33;;
20336;SDS011;10326;53.660;10.200;2023-11-19T01:47:58;1.48;;;1.38;;
20336;SDS011;10326;53.660;10.200;2023-11-19T01:50:31;3.65;;;1.83;;
20336;SDS011;10326;53.660;10.200;2023-11-19T01:53:00;1.80;;;1.70;;
20336;SDS011;10326;53.660;10.200;2023-11-19T01:55:27;1.50;;;1.40;;
20336;SDS011;10326;53.660;10.200;2023-11-19T01:57:55;1.67;;;1.58;;
20336;SDS011;10326;53.660;10.200;2023-11-19T02:00:26;1.27;;;1.17;;
20336;SDS011;10326;53.660;10.200;2023-11-19T02:02:53;1.80;;;1.70;;
20336;SDS011;10326;53.660;10.200;2023-11-19T02:05:21;1.60;;;1.50;;
20336;SDS011;10326;53.660;10.200;2023-11-19T02:07:50;1.55;;;1.45;;
20336;SDS011;10326;53.660;10.200;2023-11-19T02:10:17;1.50;;;1.35;;
20336;SDS011;10326;53.660;10.200;2023-11-19T02:12:44;1.60;;;1.50;;
20336;SDS011;10326;53.660;10.200;2023-11-19T02:15:12;1.80;;;1.33;;
20336;SDS011;10326;53.660;10.200;2023-11-19T02:17:40;1.60;;;1.50;;
20336;SDS011;10326;53.660;10.200;2023-11-19T02:20:08;1.40;;;1.30;;
20336;SDS011;10326;53.660;10.200;2023-11-19T02:22:38;1.17;;;1.17;;
20336;SDS011;10326;53.660;10.200;2023-11-19T02:25:07;1.35;;;1.30;;
20336;SDS011;10326;53.660;10.200;2023-11-19T02:27:54;1.35;;;1.25;;
20336;SDS011;10326;53.660;10.200;2023-11-19T02:30:25;1.20;;;1.13;;
20336;SDS011;10326;53.660;10.200;2023-11-19T02:32:53;1.23;;;1.00;;
20336;SDS011;10326;53.660;10.200;2023-11-19T02:35:22;1.17;;;1.10;;
20336;SDS011;10326;53.660;10.200;2023-11-19T02:37:49;1.65;;;0.85;;
20336;SDS011;10326;53.660;10.200;2023-11-19T02:40:16;1.20;;;1.20;;
20336;SDS011;10326;53.660;10.200;2023-11-19T02:42:43;1.10;;;1.10;;
20336;SDS011;10326;53.660;10.200;2023-11-19T02:45:14;1.23;;;1.23;;
20336;SDS011;10326;53.660;10.200;2023-11-19T02:47:41;1.00;;;1.00;;
20336;SDS011;10326;53.660;10.200;2023-11-19T02:50:09;2.88;;;0.90;;
20336;SDS011;10326;53.660;10.200;2023-11-19T02:52:39;1.67;;;1.00;;
20336;SDS011;10326;53.660;10.200;2023-11-19T02:55:07;0.70;;;0.70;;
20336;SDS011;10326;53.660;10.200;2023-11-19T02:57:38;0.70;;;0.70;;
20336;SDS011;10326;53.660;10.200;2023-11-19T03:00:11;1.05;;;0.73;;
20336;SDS011;10326;53.660;10.200;2023-11-19T03:02:41;0.90;;;0.90;;
20336;SDS011;10326;53.660;10.200;2023-11-19T03:05:11;0.77;;;0.75;;
20336;SDS011;10326;53.660;10.200;2023-11-19T03:07:40;0.70;;;0.70;;
20336;SDS011;10326;53.660;10.200;2023-11-19T03:10:09;0.80;;;0.80;;
20336;SDS011;10326;53.660;10.200;2023-11-19T03:12:38;0.70;;;0.70;;
20336;SDS011;10326;53.660;10.200;2023-11-19T03:15:06;0.77;;;0.68;;
20336;SDS011;10326;53.660;10.200;2023-11-19T03:17:37;0.98;;;0.98;;
20336;SDS011;10326;53.660;10.200;2023-11-19T03:20:06;0.82;;;0.82;;
20336;SDS011;10326;53.660;10.200;2023-11-19T03:22:36;0.88;;;0.88;;
20336;SDS011;10326;53.660;10.200;2023-11-19T03:25:03;0.90;;;0.90;;
20336;SDS011;10326;53.660;10.200;2023-11-19T03:27:33;0.88;;;0.88;;
20336;SDS011;10326;53.660;10.200;2023-11-19T03:30:01;0.80;;;0.80;;
20336;SDS011;10326;53.660;10.200;2023-11-19T03:32:30;1.05;;;1.05;;
20336;SDS011;10326;53.660;10.200;2023-11-19T03:34:59;0.95;;;0.95;;
20336;SDS011;10326;53.660;10.200;2023-11-19T03:37:27;1.30;;;1.20;;
20336;SDS011;10326;53.660;10.200;2023-11-19T03:39:54;1.15;;;1.13;;
20336;SDS011;10326;53.660;10.200;2023-11-19T03:42:24;0.98;;;0.90;;
20336;SDS011;10326;53.660;10.200;2023-11-19T03:44:53;1.13;;;1.00;;
20336;SDS011;10326;53.660;10.200;2023-11-19T03:47:20;1.00;;;1.00;;
20336;SDS011;10326;53.660;10.200;2023-11-19T03:49:48;1.48;;;1.25;;
20336;SDS011;10326;53.660;10.200;2023-11-19T03:52:17;1.17;;;1.08;;
20336;SDS011;10326;53.660;10.200;2023-11-19T03:54:45;0.95;;;0.95;;
20336;SDS011;10326;53.660;10.200;2023-11-19T03:57:12;1.48;;;1.10;;
20336;SDS011;10326;53.660;10.200;2023-11-19T03:59:40;1.63;;;1.52;;
20336;SDS011;10326;53.660;10.200;2023-11-19T04:02:07;2.35;;;1.05;;
20336;SDS011;10326;53.660;10.200;2023-11-19T04:04:35;1.40;;;1.30;;
20336;SDS011;10326;53.660;10.200;2023-11-19T04:07:03;1.45;;;1.35;;
20336;SDS011;10326;53.660;10.200;2023-11-19T04:09:32;1.30;;;1.20;;
20336;SDS011;10326;53.660;10.200;2023-11-19T04:11:59;1.30;;;1.20;;
20336;SDS011;10326;53.660;10.200;2023-11-19T04:14:26;1.55;;;1.45;;
20336;SDS011;10326;53.660;10.200;2023-11-19T04:16:54;1.50;;;1.40;;
20336;SDS011;10326;53.660;10.200;2023-11-19T04:19:21;1.63;;;1.52;;
20336;SDS011;10326;53.660;10.200;2023-11-19T04:21:48;3.00;;;1.60;;
20336;SDS011;10326;53.660;10.200;2023-11-19T04:24:16;1.77;;;1.67;;
20336;SDS011;10326;53.660;10.200;2023-11-19T04:26:45;1.70;;;1.52;;
20336;SDS011;10326;53.660;10.200;2023-11-19T04:29:13;1.58;;;1.48;;
20336;SDS011;10326;53.660;10.200;2023-11-19T04:31:42;1.70;;;1.60;;
20336;SDS011;10326;53.660;10.200;2023-11-19T04:34:10;2.25;;;1.73;;
20336;SDS011;10326;53.660;10.200;2023-11-19T04:36:38;2.33;;;2.13;;
20336;SDS011;10326;53.660;10.200;2023-11-19T04:39:05;1.65;;;1.55;;
20336;SDS011;10326;53.660;10.200;2023-11-19T04:41:46;1.50;;;1.40;;
20336;SDS011;10326;53.660;10.200;2023-11-19T04:44:14;1.80;;;1.70;;
20336;SDS011;10326;53.660;10.200;2023-11-19T04:46:41;1.80;;;1.70;;
20336;SDS011;10326;53.660;10.200;2023-11-19T04:49:09;1.90;;;1.80;;
20336;SDS011;10326;53.660;10.200;2023-11-19T04:51:40;2.25;;;1.95;;
20336;SDS011;10326;53.660;10.200;2023-11-19T04:57:51;2.33;;;2.17;;
20336;SDS011;10326;53.660;10.200;2023-11-19T05:00:20;2.67;;;2.45;;
20336;SDS011;10326;53.660;10.200;2023-11-19T05:02:47;2.83;;;2.63;;
20336;SDS011;10326;53.660;10.200;2023-11-19T05:05:15;3.15;;;2.95;;
20336;SDS011;10326;53.660;10.200;2023-11-19T05:07:42;3.33;;;3.05;;
20336;SDS011;10326;53.660;10.200;2023-11-19T05:10:09;3.13;;;2.92;;
20336;SDS011;10326;53.660;10.200;2023-11-19T05:12:37;3.22;;;3.03;;
20336;SDS011;10326;53.660;10.200;2023-11-19T05:15:06;3.17;;;2.95;;
20336;SDS011;10326;53.660;10.200;2023-11-19T05:17:33;4.15;;;3.83;;
20336;SDS011;10326;53.660;10.200;2023-11-19T05:20:02;3.60;;;3.15;;
20336;SDS011;10326;53.660;10.200;2023-11-19T05:22:30;4.38;;;3.97;;
20336;SDS011;10326;53.660;10.200;2023-11-19T05:24:57;5.10;;;4.60;;
20336;SDS011;10326;53.660;10.200;2023-11-19T05:27:24;5.18;;;4.68;;
20336;SDS011;10326;53.660;10.200;2023-11-19T05:29:52;5.18;;;4.68;;
20336;SDS011;10326;53.660;10.200;2023-11-19T05:32:20;5.10;;;4.70;;
20336;SDS011;10326;53.660;10.200;2023-11-19T05:34:47;5.95;;;5.45;;
20336;SDS011;10326;53.660;10.200;2023-11-19T05:37:14;6.10;;;5.60;;
20336;SDS011;10326;53.660;10.200;2023-11-19T05:39:41;6.90;;;6.30;;
20336;SDS011;10326;53.660;10.200;2023-11-19T05:42:08;7.18;;;6.47;;
20336;SDS011;10326;53.660;10.200;2023-11-19T05:44:35;7.22;;;6.50;;
20336;SDS011;10326;53.660;10.200;2023-11-19T05:47:03;7.70;;;7.00;;
20336;SDS011;10326;53.660;10.200;2023-11-19T05:49:32;7.80;;;7.07;;
20336;SDS011;10326;53.660;10.200;2023-11-19T05:51:59;8.23;;;7.47;;
20336;SDS011;10326;53.660;10.200;2023-11-19T05:54:28;7.80;;;7.13;;
20336;SDS011;10326;53.660;10.200;2023-11-19T05:56:57;9.48;;;8.48;;
20336;SDS011;10326;53.660;10.200;2023-11-19T05:59:24;9.65;;;8.65;;
20336;SDS011;10326;53.660;10.200;2023-11-19T06:01:51;9.85;;;8.93;;
20336;SDS011;10326;53.660;10.200;2023-11-19T06:04:18;11.98;;;9.07;;
20336;SDS011;10326;53.660;10.200;2023-11-19T06:06:47;10.25;;;9.25;;
20336;SDS011;10326;53.660;10.200;2023-11-19T06:09:14;9.70;;;8.43;;
20336;SDS011;10326;53.660;10.200;2023-11-19T06:11:43;10.75;;;9.27;;
20336;SDS011;10326;53.660;10.200;2023-11-19T06:14:11;10.35;;;9.25;;
20336;SDS011;10326;53.660;10.200;2023-11-19T06:16:37;10.68;;;9.55;;
20336;SDS011;10326;53.660;10.200;2023-11-19T06:19:05;9.48;;;8.60;;
20336;SDS011;10326;53.660;10.200;2023-11-19T06:21:33;10.55;;;9.45;;
20336;SDS011;10326;53.660;10.200;2023-11-19T06:24:03;12.10;;;10.30;;
20336;SDS011;10326;53.660;10.200;2023-11-19T06:26:31;10.80;;;9.70;;
20336;SDS011;10326;53.660;10.200;2023-11-19T06:28:58;11.05;;;9.88;;
20336;SDS011;10326;53.660;10.200;2023-11-19T06:31:25;12.90;;;9.90;;
20336;SDS011;10326;53.660;10.200;2023-11-19T06:33:52;12.02;;;10.18;;
20336;SDS011;10326;53.660;10.200;2023-11-19T06:36:19;11.32;;;9.57;;
20336;SDS011;10326;53.660;10.200;2023-11-19T06:38:46;12.10;;;9.88;;
20336;SDS011;10326;53.660;10.200;2023-11-19T06:41:15;13.88;;;9.63;;
20336;SDS011;10326;53.660;10.200;2023-11-19T06:43:42;10.32;;;9.15;;
20336;SDS011;10326;53.660;10.200;2023-11-19T06:46:16;10.48;;;9.38;;
20336;SDS011;10326;53.660;10.200;2023-11-19T06:48:43;10.63;;;9.45;;
20336;SDS011;10326;53.660;10.200;2023-11-19T06:51:10;11.30;;;10.02;;
20336;SDS011;10326;53.660;10.200;2023-11-19T06:53:37;12.57;;;9.63;;
20336;SDS011;10326;53.660;10.200;2023-11-19T06:56:06;12.27;;;8.73;;
20336;SDS011;10326;53.660;10.200;2023-11-19T06:58:45;13.20;;;9.52;;
20336;SDS011;10326;53.660;10.200;2023-11-19T07:01:13;11.50;;;9.32;;
20336;SDS011;10326;53.660;10.200;2023-11-19T07:03:40;11.30;;;9.10;;
20336;SDS011;10326;53.660;10.200;2023-11-19T07:06:07;12.35;;;9.02;;
20336;SDS011;10326;53.660;10.200;2023-11-19T07:08:34;12.73;;;8.98;;
20336;SDS011;10326;53.660;10.200;2023-11-19T07:11:01;13.77;;;8.90;;
20336;SDS011;10326;53.660;10.200;2023-11-19T07:13:30;16.25;;;8.90;;
20336;SDS011;10326;53.660;10.200;2023-11-19T07:15:57;14.20;;;8.77;;
20336;SDS011;10326;53.660;10.200;2023-11-19T07:18:24;13.70;;;8.25;;
20336;SDS011;10326;53.660;10.200;2023-11-19T07:20:51;20.80;;;7.85;;
20336;SDS011;10326;53.660;10.200;2023-11-19T07:23:18;15.02;;;7.45;;
20336;SDS011;10326;53.660;10.200;2023-11-19T07:25:46;12.15;;;6.55;;
20336;SDS011;10326;53.660;10.200;2023-11-19T07:28:15;16.83;;;6.60;;
20336;SDS011;10326;53.660;10.200;2023-11-19T07:30:45;13.43;;;6.25;;
20336;SDS011;10326;53.660;10.200;2023-11-19T07:33:13;16.27;;;6.03;;
20336;SDS011;10326;53.660;10.200;2023-11-19T07:35:40;17.40;;;6.03;;
20336;SDS011;10326;53.660;10.200;2023-11-19T07:38:07;17.38;;;5.80;;
20336;SDS011;10326;53.660;10.200;2023-11-19T07:40:34;14.10;;;6.10;;
20336;SDS011;10326;53.660;10.200;2023-11-19T07:43:02;14.85;;;5.13;;
20336;SDS011;10326;53.660;10.200;2023-11-19T07:45:28;12.98;;;5.38;;
20336;SDS011;10326;53.660;10.200;2023-11-19T07:47:57;13.15;;;4.78;;
20336;SDS011;10326;53.660;10.200;2023-11-19T07:50:26;15.35;;;4.82;;
20336;SDS011;10326;53.660;10.200;2023-11-19T07:52:53;11.95;;;4.43;;
20336;SDS011;10326;53.660;10.200;2023-11-19T07:55:20;14.35;;;4.43;;
20336;SDS011;10326;53.660;10.200;2023-11-19T07:57:47;14.30;;;4.35;;
20336;SDS011;10326;53.660;10.200;2023-11-19T08:00:14;14.80;;;4.40;;
20336;SDS011;10326;53.660;10.200;2023-11-19T08:02:43;14.48;;;4.30;;
20336;SDS011;10326;53.660;10.200;2023-11-19T08:05:11;16.33;;;4.50;;
20336;SDS011;10326;53.660;10.200;2023-11-19T08:07:40;19.40;;;4.60;;
20336;SDS011;10326;53.660;10.200;2023-11-19T08:10:07;17.48;;;6.05;;
20336;SDS011;10326;53.660;10.200;2023-11-19T08:12:36;17.13;;;5.68;;
20336;SDS011;10326;53.660;10.200;2023-11-19T08:15:03;14.68;;;4.15;;
20336;SDS011;10326;53.660;10.200;2023-11-19T08:17:32;18.70;;;4.88;;
20336;SDS011;10326;53.660;10.200;2023-11-19T08:19:59;17.60;;;4.55;;
20336;SDS011;10326;53.660;10.200;2023-11-19T08:22:27;16.50;;;4.85;;
20336;SDS011;10326;53.660;10.200;2023-11-19T08:24:55;17.50;;;5.60;;
20336;SDS011;10326;53.660;10.200;2023-11-19T08:27:22;18.23;;;6.00;;
20336;SDS011;10326;53.660;10.200;2023-11-19T08:29:52;15.77;;;5.35;;
20336;SDS011;10326;53.660;10.200;2023-11-19T08:32:20;18.35;;;6.05;;
20336;SDS011;10326;53.660;10.200;2023-11-19T08:34:48;15.27;;;5.63;;
20336;SDS011;10326;53.660;10.200;2023-11-19T08:37:15;17.42;;;5.28;;
20336;SDS011;10326;53.660;10.200;2023-11-19T08:39:44;15.95;;;5.03;;
20336;SDS011;10326;53.660;10.200;2023-11-19T08:42:11;18.88;;;4.95;;
20336;SDS011;10326;53.660;10.200;2023-11-19T08:44:39;15.55;;;4.78;;
20336;SDS011;10326;53.660;10.200;2023-11-19T08:47:08;14.10;;;3.97;;
20336;SDS011;10326;53.660;10.200;2023-11-19T08:49:36;16.02;;;4.28;;
20336;SDS011;10326;53.660;10.200;2023-11-19T08:52:03;16.70;;;4.90;;
20336;SDS011;10326;53.660;10.200;2023-11-19T08:54:32;19.33;;;4.70;;
20336;SDS011;10326;53.660;10.200;2023-11-19T08:57:00;18.58;;;4.97;;
20336;SDS011;10326;53.660;10.200;2023-11-19T08:59:29;18.55;;;4.72;;
20336;SDS011;10326;53.660;10.200;2023-11-19T09:01:56;20.42;;;4.90;;
20336;SDS011;10326;53.660;10.200;2023-11-19T09:04:23;17.80;;;4.32;;
20336;SDS011;10326;53.660;10.200;2023-11-19T09:06:50;19.13;;;4.70;;
20336;SDS011;10326;53.660;10.200;2023-11-19T09:09:17;20.23;;;6.28;;
20336;SDS011;10326;53.660;10.200;2023-11-19T09:11:45;18.15;;;4.93;;
20336;SDS011;10326;53.660;10.200;2023-11-19T09:14:13;15.65;;;4.30;;
20336;SDS011;10326;53.660;10.200;2023-11-19T09:16:41;16.50;;;4.43;;
20336;SDS011;10326;53.660;10.200;2023-11-19T09:19:09;18.50;;;4.57;;
20336;SDS011;10326;53.660;10.200;2023-11-19T09:21:36;18.02;;;4.53;;
20336;SDS011;10326;53.660;10.200;2023-11-19T09:24:04;19.48;;;4.70;;
20336;SDS011;10326;53.660;10.200;2023-11-19T09:26:33;17.13;;;5.00;;
20336;SDS011;10326;53.660;10.200;2023-11-19T09:29:01;20.83;;;4.82;;
20336;SDS011;10326;53.660;10.200;2023-11-19T09:31:29;18.33;;;4.78;;
20336;SDS011;10326;53.660;10.200;2023-11-19T09:33:57;16.88;;;4.85;;
20336;SDS011;10326;53.660;10.200;2023-11-19T09:36:24;17.83;;;4.45;;
20336;SDS011;10326;53.660;10.200;2023-11-19T09:38:52;19.17;;;4.25;;
20336;SDS011;10326;53.660;10.200;2023-11-19T09:41:19;18.73;;;5.13;;
20336;SDS011;10326;53.660;10.200;2023-11-19T09:43:46;23.33;;;5.13;;
20336;SDS011;10326;53.660;10.200;2023-11-19T09:46:14;20.15;;;5.68;;
20336;SDS011;10326;53.660;10.200;2023-11-19T09:48:44;22.05;;;4.55;;
20336;SDS011;10326;53.660;10.200;2023-11-19T09:51:13;18.63;;;4.80;;
20336;SDS011;10326;53.660;10.200;2023-11-19T09:53:40;19.95;;;4.97;;
20336;SDS011;10326;53.660;10.200;2023-11-19T09:56:12;16.15;;;5.68;;
20336;SDS011;10326;53.660;10.200;2023-11-19T09:58:39;22.45;;;5.35;;
20336;SDS011;10326;53.660;10.200;2023-11-19T10:01:06;23.92;;;5.30;;
20336;SDS011;10326;53.660;10.200;2023-11-19T10:03:37;22.55;;;5.38;;
20336;SDS011;10326;53.660;10.200;2023-11-19T10:06:07;19.83;;;5.35;;
20336;SDS011;10326;53.660;10.200;2023-11-19T10:08:36;20.70;;;5.32;;
20336;SDS011;10326;53.660;10.200;2023-11-19T10:11:04;18.52;;;4.57;;
20336;SDS011;10326;53.660;10.200;2023-11-19T10:13:33;23.10;;;5.88;;
20336;SDS011;10326;53.660;10.200;2023-11-19T10:16:04;21.52;;;5.93;;
20336;SDS011;10326;53.660;10.200;2023-11-19T10:18:36;23.00;;;5.72;;
20336;SDS011;10326;53.660;10.200;2023-11-19T10:21:04;21.30;;;5.32;;
20336;SDS011;10326;53.660;10.200;2023-11-19T10:26:18;20.75;;;5.72;;
20336;SDS011;10326;53.660;10.200;2023-11-19T10:28:47;22.17;;;5.47;;
20336;SDS011;10326;53.660;10.200;2023-11-19T10:31:15;20.42;;;5.25;;
20336;SDS011;10326;53.660;10.200;2023-11-19T10:33:43;26.45;;;5.30;;
20336;SDS011;10326;53.660;10.200;2023-11-19T10:36:11;21.92;;;5.78;;
20336;SDS011;10326;53.660;10.200;2023-11-19T10:38:38;21.40;;;5.53;;
20336;SDS011;10326;53.660;10.200;2023-11-19T10:41:08;21.67;;;5.70;;
20336;SDS011;10326;53.660;10.200;2023-11-19T10:43:44;21.75;;;4.88;;
20336;SDS011;10326;53.660;10.200;2023-11-19T10:46:12;18.77;;;5.10;;
20336;SDS011;10326;53.660;10.200;2023-11-19T10:48:46;19.58;;;5.68;;
20336;SDS011;10326;53.660;10.200;2023-11-19T10:51:13;18.15;;;4.90;;
20336;SDS011;10326;53.660;10.200;2023-11-19T10:53:46;23.33;;;5.05;;
20336;SDS011;10326;53.660;10.200;2023-11-19T10:56:18;19.30;;;5.53;;
20336;SDS011;10326;53.660;10.200;2023-11-19T10:58:50;21.35;;;5.22;;
20336;SDS011;10326;53.660;10.200;2023-11-19T11:01:20;19.40;;;5.40;;
20336;SDS011;10326;53.660;10.200;2023-11-19T11:03:50;23.10;;;5.00;;
20336;SDS011;10326;53.660;10.200;2023-11-19T11:06:19;19.58;;;5.43;;
20336;SDS011;10326;53.660;10.200;2023-11-19T11:08:48;19.05;;;5.43;;
20336;SDS011;10326;53.660;10.200;2023-11-19T11:11:17;19.92;;;5.18;;
20336;SDS011;10326;53.660;10.200;2023-11-19T11:13:46;16.60;;;4.85;;
20336;SDS011;10326;53.660;10.200;2023-11-19T11:16:16;19.30;;;4.80;;
20336;SDS011;10326;53.660;10.200;2023-11-19T11:18:48;19.35;;;4.63;;
20336;SDS011;10326;53.660;10.200;2023-11-19T11:21:20;19.40;;;4.78;;
20336;SDS011;10326;53.660;10.200;2023-11-19T11:24:14;25.10;;;5.18;;
20336;SDS011;10326;53.660;10.200;2023-11-19T11:30:04;18.13;;;5.00;;
20336;SDS011;10326;53.660;10.200;2023-11-19T11:32:51;22.63;;;4.90;;
20336;SDS011;10326;53.660;10.200;2023-11-19T11:35:35;21.30;;;5.00;;
20336;SDS011;10326;53.660;10.200;2023-11-19T11:38:21;21.75;;;4.75;;
20336;SDS011;10326;53.660;10.200;2023-11-19T11:43:45;20.48;;;5.63;;
20336;SDS011;10326;53.660;10.200;2023-11-19T11:49:25;21.75;;;4.65;;
20336;SDS011;10326;53.660;10.200;2023-11-19T11:52:02;21.23;;;5.03;;
20336;SDS011;10326;53.660;10.200;2023-11-19T11:54:30;18.60;;;4.65;;
20336;SDS011;10326;53.660;10.200;2023-11-19T11:57:06;21.70;;;5.80;;
20336;SDS011;10326;53.660;10.200;2023-11-19T11:59:49;23.00;;;5.60;;
20336;SDS011;10326;53.660;10.200;2023-11-19T12:02:18;18.42;;;4.82;;
20336;SDS011;10326;53.660;10.200;2023-11-19T12:04:48;19.77;;;5.63;;
20336;SDS011;10326;53.660;10.200;2023-11-19T12:07:16;18.15;;;4.82;;
20336;SDS011;10326;53.660;10.200;2023-11-19T12:09:49;17.90;;;4.78;;
20336;SDS011;10326;53.660;10.200;2023-11-19T12:12:28;17.48;;;5.03;;
20336;SDS011;10326;53.660;10.200;2023-11-19T12:15:13;18.52;;;4.88;;
20336;SDS011;10326;53.660;10.200;2023-11-19T12:17:41;21.20;;;4.95;;
20336;SDS011;10326;53.660;10.200;2023-11-19T12:20:14;19.58;;;4.80;;
20336;SDS011;10326;53.660;10.200;2023-11-19T12:22:44;18.55;;;4.88;;
20336;SDS011;10326;53.660;10.200;2023-11-19T12:25:23;23.38;;;5.20;;
20336;SDS011;10326;53.660;10.200;2023-11-19T12:27:51;18.52;;;5.00;;
20336;SDS011;10326;53.660;10.200;2023-11-19T12:30:23;20.75;;;4.63;;
20336;SDS011;10326;53.660;10.200;2023-11-19T12:32:52;22.05;;;5.93;;
20336;SDS011;10326;53.660;10.200;2023-11-19T12:35:21;19.50;;;5.18;;
20336;SDS011;10326;53.660;10.200;2023-11-19T12:37:50;20.83;;;4.97;;
20336;SDS011;10326;53.660;10.200;2023-11-19T12:40:19;19.25;;;4.45;;
20336;SDS011;10326;53.660;10.200;2023-11-19T12:42:48;18.15;;;4.47;;
20336;SDS011;10326;53.660;10.200;2023-11-19T12:45:18;18.95;;;5.22;;
20336;SDS011;10326;53.660;10.200;2023-11-19T12:48:04;18.55;;;4.90;;
20336;SDS011;10326;53.660;10.200;2023-11-19T12:50:50;22.55;;;5.28;;
20336;SDS011;10326;53.660;10.200;2023-11-19T12:53:21;18.50;;;5.07;;
20336;SDS011;10326;53.660;10.200;2023-11-19T12:55:48;15.32;;;4.45;;
20336;SDS011;10326;53.660;10.200;2023-11-19T12:58:29;16.92;;;4.63;;
20336;SDS011;10326;53.660;10.200;2023-11-19T13:01:01;17.35;;;5.65;;
20336;SDS011;10326;53.660;10.200;2023-11-19T13:03:31;18.70;;;5.15;;
20336;SDS011;10326;53.660;10.200;2023-11-19T13:06:02;20.23;;;4.88;;
20336;SDS011;10326;53.660;10.200;2023-11-19T13:08:39;18.52;;;4.40;;
20336;SDS011;10326;53.660;10.200;2023-11-19T13:11:10;18.95;;;4.78;;
20336;SDS011;10326;53.660;10.200;2023-11-19T13:13:53;17.25;;;4.82;;
20336;SDS011;10326;53.660;10.200;2023-11-19T13:16:22;17.08;;;4.75;;
20336;SDS011;10326;53.660;10.200;2023-11-19T13:18:50;19.55;;;4.97;;
20336;SDS011;10326;53.660;10.200;2023-11-19T13:21:22;15.00;;;4.70;;
20336;SDS011;10326;53.660;10.200;2023-11-19T13:23:50;16.92;;;5.25;;
20336;SDS011;10326;53.660;10.200;2023-11-19T13:26:18;15.00;;;4.50;;
20336;SDS011;10326;53.660;10.200;2023-11-19T13:28:46;18.30;;;4.82;;
20336;SDS011;10326;53.660;10.200;2023-11-19T13:31:14;23.00;;;5.15;;
20336;SDS011;10326;53.660;10.200;2023-11-19T13:33:43;18.08;;;5.05;;
20336;SDS011;10326;53.660;10.200;2023-11-19T13:36:11;20.80;;;5.40;;
20336;SDS011;10326;53.660;10.200;2023-11-19T13:38:38;19.02;;;4.50;;
20336;SDS011;10326;53.660;10.200;2023-11-19T13:41:07;18.52;;;4.20;;
20336;SDS011;10326;53.660;10.200;2023-11-19T13:43:36;18.65;;;5.10;;
20336;SDS011;10326;53.660;10.200;2023-11-19T13:46:04;18.52;;;5.03;;
20336;SDS011;10326;53.660;10.200;2023-11-19T13:48:35;21.40;;;4.80;;
20336;SDS011;10326;53.660;10.200;2023-11-19T13:51:05;19.13;;;4.80;;
20336;SDS011;10326;53.660;10.200;2023-11-19T13:53:35;21.80;;;4.82;;
20336;SDS011;10326;53.660;10.200;2023-11-19T13:56:03;19.15;;;5.00;;
20336;SDS011;10326;53.660;10.200;2023-11-19T13:58:31;20.25;;;5.20;;
20336;SDS011;10326;53.660;10.200;2023-11-19T14:01:00;16.15;;;5.38;;
20336;SDS011;10326;53.660;10.200;2023-11-19T14:03:28;19.75;;;5.65;;
20336;SDS011;10326;53.660;10.200;2023-11-19T14:05:56;18.52;;;5.05;;
20336;SDS011;10326;53.660;10.200;2023-11-19T14:08:26;18.77;;;4.60;;
20336;SDS011;10326;53.660;10.200;2023-11-19T14:11:09;14.77;;;4.18;;
20336;SDS011;10326;53.660;10.200;2023-11-19T14:13:37;15.43;;;4.25;;
20336;SDS011;10326;53.660;10.200;2023-11-19T14:16:05;18.52;;;5.75;;
20336;SDS011;10326;53.660;10.200;2023-11-19T14:18:34;16.45;;;4.80;;
20336;SDS011;10326;53.660;10.200;2023-11-19T14:21:02;17.23;;;5.10;;
20336;SDS011;10326;53.660;10.200;2023-11-19T14:23:32;20.50;;;5.70;;
20336;SDS011;10326;53.660;10.200;2023-11-19T14:25:59;19.17;;;5.25;;
20336;SDS011;10326;53.660;10.200;2023-11-19T14:28:28;19.55;;;5.10;;
20336;SDS011;10326;53.660;10.200;2023-11-19T14:34:40;19.25;;;4.97;;
20336;SDS011;10326;53.660;10.200;2023-11-19T14:37:12;17.60;;;4.45;;
20336;SDS011;10326;53.660;10.200;2023-11-19T14:39:44;19.15;;;5.63;;
20336;SDS011;10326;53.660;10.200;2023-11-19T14:42:19;15.35;;;4.03;;
20336;SDS011;10326;53.660;10.200;2023-11-19T14:45:34;21.50;;;5.05;;
20336;SDS011;10326;53.660;10.200;2023-11-19T14:49:06;17.10;;;4.40;;
20336;SDS011;10326;53.660;10.200;2023-11-19T14:51:37;16.20;;;3.85;;
20336;SDS011;10326;53.660;10.200;2023-11-19T14:54:07;15.90;;;4.78;;
20336;SDS011;10326;53.660;10.200;2023-11-19T14:56:43;15.05;;;4.03;;
20336;SDS011;10326;53.660;10.200;2023-11-19T14:59:11;13.43;;;4.30;;